Terminal Aerodrome Forecast
Issued by NWS North Platte, NE

Home | Current Version | Previous Version | Text Only | Print | Product List | Glossary Off
Versions: 1 2 3 4 5 6 7 8 9 10 11 12 13 14 15 16

000
FTUS43 KLBF 140500
TAFVTN
TAF
KVTN 140520Z 1406/1506 36017KT P6SM BKN100
     FM140800 33011KT P6SM SCT250
     FM141500 31011G22KT P6SM BKN060
     FM142300 33011KT P6SM SKC=

USA.gov is the U.S. government's official web portal to all federal, state and local government web resources and services.